Time;durP1;ratioP1;P1;durP2;ratioP2;P2;SDS_P1;SDS_P2;PMS_P1;PMS_P2;Temp;Humidity;BMP_temperature;BMP_pressure;BME280_temperature;BME280_humidity;BME280_pressure;Samples;Min_cycle;Max_cycle;Signal;HPM_P1;HPM_P2
2021/11/17 02:27:50;;;;;;;39.50;16.38;;;;;;;;;;5033014;28;20496;-63
2021/11/17 02:30:20;;;;;;;38.03;14.27;;;;;;;;;;5031046;28;20057;-64
2021/11/17 02:33:05;;;;;;;38.30;15.73;;;;;;;;;;5030855;28;20036;-64
2021/11/17 02:35:34;;;;;;;39.95;16.20;;;;;;;;;;5030812;28;20034;-64
2021/11/17 02:38:03;;;;;;;40.08;16.13;;;;;;;;;;5030918;28;20018;-64
2021/11/17 02:40:32;;;;;;;36.90;17.17;;;;;;;;;;5031183;28;20033;-64
2021/11/17 02:43:14;;;;;;;39.58;15.18;;;;;;;;;;5030333;28;20075;-64
2021/11/17 02:45:55;;;;;;;42.88;17.27;;;;;;;;;;5030769;28;20508;-64
2021/11/17 02:48:40;;;;;;;38.28;16.48;;;;;;;;;;5030948;28;20040;-64
2021/11/17 02:51:39;;;;;;;41.15;17.40;;;;;;;;;;5030703;28;20064;-64
2021/11/17 02:54:11;;;;;;;40.58;16.55;;;;;;;;;;5008984;28;20037;-64
2021/11/17 02:56:46;;;;;;;42.90;17.38;;;;;;;;;;5030710;28;20025;-64
2021/11/17 02:59:24;;;;;;;41.05;17.88;;;;;;;;;;5032179;28;20544;-64
2021/11/17 03:01:50;;;;;;;;;;;;;;;;;;5014292;28;20035;-64
2021/11/17 03:04:35;;;;;;;43.55;16.77;;;;;;;;;;5031982;28;19928;-64
2021/11/17 03:07:01;;;;;;;45.20;18.95;;;;;;;;;;5031878;28;20029;-64
2021/11/17 03:09:30;;;;;;;52.45;18.30;;;;;;;;;;5031172;28;20443;-64
2021/11/17 03:11:56;;;;;;;52.03;20.67;;;;;;;;;;5030249;28;20040;-64
2021/11/17 03:14:32;;;;;;;47.65;16.42;;;;;;;;;;5030650;28;20112;-65
2021/11/17 03:17:17;;;;;;;45.17;17.55;;;;;;;;;;5015296;28;20392;-65
2021/11/17 03:20:03;;;;;;;53.25;21.25;;;;;;;;;;5030502;28;20022;-64
2021/11/17 03:22:29;;;;;;;52.15;20.92;;;;;;;;;;5030473;28;20088;-64
2021/11/17 03:25:07;;;;;;;42.90;18.55;;;;;;;;;;5031848;28;20557;-64
2021/11/17 03:27:33;;;;;;;45.50;18.27;;;;;;;;;;5032024;28;20018;-64
2021/11/17 03:30:09;;;;;;;45.03;18.52;;;;;;;;;;5030711;28;20029;-64
2021/11/17 03:32:53;;;;;;;45.22;18.23;;;;;;;;;;5035073;28;20100;-64
2021/11/17 03:35:32;;;;;;;51.47;22.77;;;;;;;;;;5034165;28;20132;-64
2021/11/17 03:38:01;;;;;;;50.00;20.45;;;;;;;;;;5035651;28;20025;-64
2021/11/17 03:40:33;;;;;;;47.53;21.17;;;;;;;;;;5034107;28;20028;-64
2021/11/17 03:42:59;;;;;;;47.30;19.25;;;;;;;;;;5034758;28;20582;-64
2021/11/17 03:45:31;;;;;;;50.95;21.88;;;;;;;;;;5033521;28;20029;-64
2021/11/17 03:48:16;;;;;;;51.28;19.50;;;;;;;;;;5035226;28;20017;-64
2021/11/17 03:50:45;;;;;;;42.80;16.75;;;;;;;;;;5033480;28;20041;-64
2021/11/17 03:53:14;;;;;;;51.85;21.85;;;;;;;;;;5034694;28;20448;-64
2021/11/17 03:55:43;;;;;;;41.58;16.90;;;;;;;;;;5034924;28;20072;-64
2021/11/17 03:58:15;;;;;;;47.78;19.90;;;;;;;;;;5033275;28;20040;-64
2021/11/17 04:00:48;;;;;;;38.80;15.40;;;;;;;;;;5017720;28;20025;-64
2021/11/17 04:03:33;;;;;;;42.40;18.30;;;;;;;;;;5033411;28;20112;-64
2021/11/17 04:06:21;;;;;;;39.85;18.40;;;;;;;;;;5017183;28;20032;-64
2021/11/17 04:08:50;;;;;;;43.47;15.90;;;;;;;;;;5033698;28;20025;-65
2021/11/17 04:11:16;;;;;;;44.22;18.02;;;;;;;;;;5033226;28;20037;-65
2021/11/17 04:14:01;;;;;;;50.25;20.38;;;;;;;;;;5034012;28;20407;-64
2021/11/17 04:16:42;;;;;;;46.55;18.95;;;;;;;;;;5033589;28;20021;-64
2021/11/17 04:19:21;;;;;;;44.97;17.95;;;;;;;;;;5034864;28;20017;-64
2021/11/17 04:21:53;;;;;;;39.08;16.20;;;;;;;;;;5016820;28;20048;-64
2021/11/17 04:24:25;;;;;;;53.10;21.10;;;;;;;;;;5034663;28;20022;-64
2021/11/17 04:26:57;;;;;;;54.88;19.83;;;;;;;;;;5032674;28;20029;-64
2021/11/17 04:29:29;;;;;;;43.58;17.42;;;;;;;;;;5034373;28;20037;-63
2021/11/17 04:32:20;;;;;;;50.70;18.73;;;;;;;;;;5032932;28;20044;-64
2021/11/17 04:34:46;;;;;;;40.30;17.80;;;;;;;;;;5016220;28;20037;-65
2021/11/17 04:37:18;;;;;;;44.92;18.02;;;;;;;;;;5032857;28;20017;-64
2021/11/17 04:39:44;;;;;;;45.30;18.05;;;;;;;;;;5033943;28;20044;-64
2021/11/17 04:42:10;;;;;;;47.58;19.08;;;;;;;;;;5032330;28;20028;-64
2021/11/17 04:44:54;;;;;;;46.17;18.35;;;;;;;;;;5033796;28;20030;-64
2021/11/17 04:47:21;;;;;;;48.17;19.70;;;;;;;;;;5032371;28;20084;-64
2021/11/17 04:49:54;;;;;;;45.28;19.67;;;;;;;;;;5033853;28;20061;-64
2021/11/17 04:52:38;;;;;;;42.35;17.60;;;;;;;;;;5033467;28;20091;-64
2021/11/17 04:55:04;;;;;;;52.05;18.27;;;;;;;;;;5031478;28;20022;-64
2021/11/17 04:57:36;;;;;;;48.95;20.00;;;;;;;;;;5031824;28;20025;-64
2021/11/17 05:00:02;;;;;;;42.53;20.10;;;;;;;;;;5033543;28;20036;-64
2021/11/17 05:02:43;;;;;;;49.13;21.77;;;;;;;;;;5033351;28;20101;-64
2021/11/17 05:05:33;;;;;;;51.28;21.08;;;;;;;;;;5033414;28;20478;-64
2021/11/17 05:08:05;;;;;;;52.97;19.70;;;;;;;;;;5033327;28;20029;-64
2021/11/17 05:10:49;;;;;;;45.47;19.42;;;;;;;;;;5032008;28;20033;-66
2021/11/17 05:13:21;;;;;;;48.00;20.33;;;;;;;;;;5031840;28;20064;-65
2021/11/17 05:15:56;;;;;;;46.03;20.50;;;;;;;;;;5031935;28;20025;-64
2021/11/17 05:18:28;;;;;;;50.05;21.45;;;;;;;;;;5033081;28;20100;-64
2021/11/17 05:20:57;;;;;;;45.33;21.45;;;;;;;;;;5033007;28;20024;-64
2021/11/17 05:23:23;;;;;;;43.53;19.40;;;;;;;;;;5031749;28;20025;-64
2021/11/17 05:25:52;;;;;;;52.50;18.83;;;;;;;;;;5032819;28;20032;-64
2021/11/17 05:28:21;;;;;;;50.10;21.00;;;;;;;;;;5031923;28;20024;-64
2021/11/17 05:30:59;;;;;;;51.53;21.02;;;;;;;;;;5031792;28;20030;-64
2021/11/17 05:33:28;;;;;;;54.60;22.00;;;;;;;;;;5031062;28;20494;-64
2021/11/17 05:35:54;;;;;;;45.15;19.67;;;;;;;;;;5031298;28;20079;-65
2021/11/17 05:38:20;;;;;;;50.63;22.42;;;;;;;;;;5033271;28;20030;-64
2021/11/17 05:40:59;;;;;;;53.67;22.33;;;;;;;;;;5032857;28;20033;-65
2021/11/17 05:43:40;;;;;;;38.25;16.35;;;;;;;;;;5031365;28;20032;-64
2021/11/17 05:46:16;;;;;;;40.38;17.15;;;;;;;;;;5014998;28;20026;-63
2021/11/17 05:48:49;;;;;;;49.03;20.42;;;;;;;;;;5031244;28;20056;-64
2021/11/17 05:51:34;;;;;;;47.30;19.70;;;;;;;;;;5015096;28;20116;-65
2021/11/17 05:54:00;;;;;;;48.03;21.90;;;;;;;;;;5014504;28;20117;-66
2021/11/17 05:56:26;;;;;;;45.08;20.58;;;;;;;;;;5032449;28;20061;-65
2021/11/17 05:58:55;;;;;;;47.33;22.10;;;;;;;;;;5031480;28;20037;-65
2021/11/17 06:01:21;;;;;;;56.50;22.25;;;;;;;;;;5031135;28;20037;-65
2021/11/17 06:04:00;;;;;;;51.13;22.58;;;;;;;;;;5030776;28;20028;-65
2021/11/17 06:06:26;;;;;;;50.55;22.08;;;;;;;;;;5032455;28;20113;-65
2021/11/17 06:08:55;;;;;;;47.63;23.02;;;;;;;;;;5030652;28;20461;-64
2021/11/17 06:11:26;;;;;;;52.13;24.70;;;;;;;;;;5032418;28;20021;-65
2021/11/17 06:13:53;;;;;;;52.05;23.33;;;;;;;;;;5031065;28;20367;-65
2021/11/17 06:16:19;;;;;;;53.30;24.42;;;;;;;;;;5030418;28;20546;-65
2021/11/17 06:18:45;;;;;;;59.03;26.35;;;;;;;;;;5031992;28;20025;-64
2021/11/17 06:21:12;;;;;;;56.22;25.02;;;;;;;;;;5030656;28;20025;-63
2021/11/17 06:23:50;;;;;;;63.83;29.00;;;;;;;;;;5030685;28;20076;-64
2021/11/17 06:26:21;;;;;;;61.00;28.40;;;;;;;;;;5031683;28;20025;-64
2021/11/17 06:28:55;;;;;;;56.42;26.02;;;;;;;;;;5025864;28;20033;-63
2021/11/17 06:31:21;;;;;;;68.68;29.55;;;;;;;;;;5030230;28;20489;-64
2021/11/17 06:33:48;;;;;;;63.42;27.48;;;;;;;;;;5011948;28;20018;-64
2021/11/17 06:36:16;;;;;;;61.15;28.42;;;;;;;;;;5036934;23;20049;-63
2021/11/17 06:38:42;;;;;;;57.10;24.70;;;;;;;;;;5030000;28;20105;-65
2021/11/17 06:41:08;;;;;;;71.22;27.58;;;;;;;;;;5030228;28;20060;-64
2021/11/17 06:43:34;;;;;;;48.80;19.15;;;;;;;;;;5029557;28;20491;-64
2021/11/17 06:46:01;;;;;;;52.58;23.70;;;;;;;;;;5027790;28;20028;-64
2021/11/17 06:48:27;;;;;;;56.63;25.08;;;;;;;;;;5029339;28;20037;-64
2021/11/17 06:50:54;;;;;;;65.88;27.95;;;;;;;;;;5028760;28;20036;-64
2021/11/17 06:53:20;;;;;;;57.75;29.38;;;;;;;;;;5029828;28;20049;-63
2021/11/17 06:55:46;;;;;;;64.47;26.75;;;;;;;;;;5027706;28;20037;-65
2021/11/17 06:58:12;;;;;;;58.55;24.15;;;;;;;;;;5029402;28;20414;-63
2021/11/17 07:00:40;;;;;;;59.92;23.52;;;;;;;;;;5028285;28;20029;-65
2021/11/17 07:03:06;;;;;;;62.63;26.57;;;;;;;;;;5013005;28;20466;-64
2021/11/17 07:05:32;;;;;;;57.72;27.90;;;;;;;;;;5010823;28;20026;-65
2021/11/17 07:08:00;;;;;;;61.03;28.00;;;;;;;;;;5014149;28;20033;-65
2021/11/17 07:10:28;;;;;;;54.40;24.77;;;;;;;;;;5013820;28;20025;-64
2021/11/17 07:12:54;;;;;;;55.55;26.35;;;;;;;;;;5013649;28;20489;-65
2021/11/17 07:15:21;;;;;;;61.72;24.27;;;;;;;;;;5030604;28;20457;-64
2021/11/17 07:17:47;;;;;;;54.33;23.40;;;;;;;;;;5033469;28;20108;-64
2021/11/17 07:20:14;;;;;;;53.97;24.17;;;;;;;;;;5033872;28;20480;-63
2021/11/17 07:22:40;;;;;;;48.92;22.48;;;;;;;;;;5031737;28;20393;-64
2021/11/17 07:25:08;;;;;;;53.17;23.77;;;;;;;;;;5032253;28;20397;-64
2021/11/17 07:27:36;;;;;;;52.35;24.25;;;;;;;;;;5033387;28;20432;-63
2021/11/17 07:30:02;;;;;;;58.40;26.08;;;;;;;;;;5033396;28;20018;-66
2021/11/17 07:32:28;;;;;;;52.17;23.45;;;;;;;;;;5032894;28;20142;-64
2021/11/17 07:34:54;;;;;;;52.45;23.73;;;;;;;;;;5033527;28;20364;-64
2021/11/17 07:37:20;;;;;;;53.55;24.90;;;;;;;;;;5033332;28;20026;-64
2021/11/17 07:39:46;;;;;;;57.42;28.25;;;;;;;;;;5033312;28;20028;-64
2021/11/17 07:42:13;;;;;;;44.45;21.90;;;;;;;;;;5032830;28;20388;-64
2021/11/17 07:44:41;;;;;;;43.92;19.33;;;;;;;;;;5033000;28;20052;-64
2021/11/17 07:47:07;;;;;;;52.22;23.02;;;;;;;;;;5031959;28;20029;-64
2021/11/17 07:49:33;;;;;;;47.33;21.30;;;;;;;;;;5032854;28;20064;-64
2021/11/17 07:51:59;;;;;;;53.15;22.15;;;;;;;;;;5033224;28;20124;-61
2021/11/17 07:54:27;;;;;;;50.70;22.85;;;;;;;;;;5033249;28;20029;-63
2021/11/17 07:56:54;;;;;;;46.53;21.95;;;;;;;;;;5031309;28;20029;-64
2021/11/17 07:59:21;;;;;;;49.95;23.75;;;;;;;;;;5032957;28;20369;-63
2021/11/17 08:01:49;;;;;;;44.40;20.95;;;;;;;;;;5032883;28;20068;-64
2021/11/17 08:04:17;;;;;;;46.80;20.45;;;;;;;;;;5017066;28;20406;-64
2021/11/17 08:06:44;;;;;;;52.55;20.65;;;;;;;;;;5013067;28;20208;-61
2021/11/17 08:09:10;;;;;;;45.45;21.80;;;;;;;;;;5014928;28;20037;-63
2021/11/17 08:11:37;;;;;;;43.92;21.38;;;;;;;;;;5032528;28;20030;-62
2021/11/17 08:14:03;;;;;;;48.50;21.63;;;;;;;;;;5032723;28;20398;-64
2021/11/17 08:16:29;;;;;;;40.72;18.45;;;;;;;;;;5032664;28;20078;-64
2021/11/17 08:18:55;;;;;;;43.13;19.70;;;;;;;;;;5033081;28;20021;-64
2021/11/17 08:21:21;;;;;;;47.35;20.60;;;;;;;;;;5033183;28;20036;-64
2021/11/17 08:23:47;;;;;;;49.08;19.90;;;;;;;;;;5032027;28;20044;-64
2021/11/17 08:26:14;;;;;;;43.20;18.00;;;;;;;;;;5032490;28;20057;-64
2021/11/17 08:28:41;;;;;;;42.40;18.95;;;;;;;;;;5032535;28;20032;-63
2021/11/17 08:31:08;;;;;;;42.28;19.35;;;;;;;;;;5030599;28;20494;-65
2021/11/17 08:33:34;;;;;;;45.20;22.02;;;;;;;;;;5030689;28;20468;-66
2021/11/17 08:36:02;;;;;;;46.05;21.48;;;;;;;;;;5030622;28;20093;-64
2021/11/17 08:38:29;;;;;;;40.47;16.48;;;;;;;;;;5031727;28;20028;-64
2021/11/17 08:40:58;;;;;;;40.60;19.17;;;;;;;;;;5032328;28;20021;-64
2021/11/17 08:43:24;;;;;;;38.03;17.88;;;;;;;;;;5031847;28;20022;-71
2021/11/17 08:45:50;;;;;;;41.15;19.05;;;;;;;;;;5031089;28;20028;-69
2021/11/17 08:48:17;;;;;;;38.13;15.45;;;;;;;;;;5032172;28;20025;-71
2021/11/17 08:50:43;;;;;;;41.28;18.92;;;;;;;;;;5030904;28;20098;-70
2021/11/17 08:53:10;;;;;;;38.10;17.80;;;;;;;;;;5031478;28;20033;-70
2021/11/17 08:55:37;;;;;;;42.35;18.30;;;;;;;;;;5030502;28;20064;-70
2021/11/17 08:58:04;;;;;;;41.17;18.67;;;;;;;;;;5030739;28;20444;-70
2021/11/17 09:00:30;;;;;;;31.83;14.90;;;;;;;;;;5030507;28;20033;-70
2021/11/17 09:02:57;;;;;;;40.53;19.60;;;;;;;;;;5032059;28;20029;-70
2021/11/17 09:05:26;;;;;;;44.15;18.75;;;;;;;;;;5031920;28;20025;-68
2021/11/17 09:07:52;;;;;;;;;;;;;;;;;;5032214;28;20029;-69
2021/11/17 09:10:21;;;;;;;39.13;17.25;;;;;;;;;;5030369;28;19921;-69
2021/11/17 09:12:47;;;;;;;43.13;20.77;;;;;;;;;;5030167;28;20068;-69
2021/11/17 09:15:13;;;;;;;43.88;20.27;;;;;;;;;;5031549;28;20075;-69
2021/11/17 09:17:40;;;;;;;46.92;21.52;;;;;;;;;;5031017;28;20025;-70
2021/11/17 09:20:07;;;;;;;40.45;20.20;;;;;;;;;;5031474;28;20025;-70
2021/11/17 09:22:33;;;;;;;45.35;19.70;;;;;;;;;;5030068;28;20021;-69
2021/11/17 09:25:00;;;;;;;38.80;18.77;;;;;;;;;;5030622;28;20028;-70
2021/11/17 09:27:27;;;;;;;40.88;19.80;;;;;;;;;;5031135;28;20056;-70
2021/11/17 09:29:53;;;;;;;36.28;19.40;;;;;;;;;;5029275;28;20017;-70
2021/11/17 09:32:19;;;;;;;38.35;17.70;;;;;;;;;;5029444;28;20033;-70
2021/11/17 09:34:45;;;;;;;43.05;20.08;;;;;;;;;;5029119;28;20480;-67
2021/11/17 09:37:11;;;;;;;42.45;21.08;;;;;;;;;;5029622;28;20040;-69
2021/11/17 09:39:38;;;;;;;36.55;16.95;;;;;;;;;;5030882;28;20095;-69
2021/11/17 09:42:05;;;;;;;39.70;19.00;;;;;;;;;;5029290;28;20076;-69
2021/11/17 09:44:35;;;;;;;33.65;15.25;;;;;;;;;;5030829;28;20441;-69
2021/11/17 09:47:02;;;;;;;42.75;18.15;;;;;;;;;;5031037;28;20021;-68
2021/11/17 09:49:47;;;;;;;32.22;15.27;;;;;;;;;;5029353;28;20496;-69
2021/11/17 09:52:14;;;;;;;31.40;12.93;;;;;;;;;;5029235;28;20033;-69
2021/11/17 09:55:19;;;;;;;40.05;19.65;;;;;;;;;;5031025;28;20037;-69
2021/11/17 09:57:47;;;;;;;38.72;18.20;;;;;;;;;;4969793;28;20387;-69
2021/11/17 10:00:16;;;;;;;38.55;18.45;;;;;;;;;;4969681;28;20035;-69
2021/11/17 10:03:01;;;;;;;36.58;18.38;;;;;;;;;;5000535;28;20075;-71
2021/11/17 10:06:16;;;;;;;39.63;20.13;;;;;;;;;;5030717;28;20105;-69
2021/11/17 10:08:58;;;;;;;41.53;21.23;;;;;;;;;;5030812;28;20134;-69
2021/11/17 10:14:10;;;;;;;37.45;17.83;;;;;;;;;;5030550;28;20039;-69
2021/11/17 10:16:36;;;;;;;40.08;18.02;;;;;;;;;;5030474;28;20117;-69
2021/11/17 10:19:23;;;;;;;38.50;18.58;;;;;;;;;;5029593;28;20026;-68
2021/11/17 10:21:56;;;;;;;33.15;15.50;;;;;;;;;;5029965;28;20049;-69
2021/11/17 10:24:22;;;;;;;38.05;18.48;;;;;;;;;;5030778;28;20030;-68
2021/11/17 10:26:50;;;;;;;38.67;17.75;;;;;;;;;;5028699;28;20477;-68
2021/11/17 10:29:25;;;;;;;34.35;15.00;;;;;;;;;;5029674;28;20022;-68
2021/11/17 10:31:53;;;;;;;39.65;19.25;;;;;;;;;;5028012;28;20021;-68
2021/11/17 10:34:19;;;;;;;;;;;;;;;;;;4679391;28;9999685;-68
2021/11/17 10:36:48;;;;;;;46.17;21.17;;;;;;;;;;5027314;28;19928;-69
2021/11/17 10:39:18;;;;;;;44.00;20.38;;;;;;;;;;5025884;28;20057;-68
2021/11/17 10:42:00;;;;;;;44.60;19.50;;;;;;;;;;5026960;28;20090;-68
2021/11/17 10:44:33;;;;;;;42.50;21.65;;;;;;;;;;5030109;28;20026;-69
2021/11/17 10:47:00;;;;;;;45.85;23.17;;;;;;;;;;5029169;28;20017;-69
2021/11/17 10:49:27;;;;;;;45.50;22.55;;;;;;;;;;5029797;28;20061;-68
2021/11/17 10:52:13;;;;;;;46.63;22.17;;;;;;;;;;5031041;28;20029;-67
2021/11/17 10:54:46;;;;;;;43.35;20.52;;;;;;;;;;5030851;28;20477;-68
2021/11/17 10:57:17;;;;;;;53.65;24.60;;;;;;;;;;5030846;28;20030;-69
2021/11/17 10:59:43;;;;;;;39.85;19.00;;;;;;;;;;5029338;28;20485;-68
2021/11/17 11:02:10;;;;;;;56.13;24.15;;;;;;;;;;5029196;28;20040;-68
2021/11/17 11:04:42;;;;;;;47.05;23.67;;;;;;;;;;5010988;28;20513;-68
2021/11/17 11:07:12;;;;;;;50.92;23.35;;;;;;;;;;5010666;28;20482;-69
2021/11/17 11:09:47;;;;;;;57.13;25.48;;;;;;;;;;5025235;28;20149;-68
2021/11/17 11:12:15;;;;;;;56.35;26.80;;;;;;;;;;5028614;28;20508;-68
2021/11/17 11:14:55;;;;;;;51.88;23.63;;;;;;;;;;5029573;28;20073;-67
2021/11/17 11:17:21;;;;;;;53.03;25.30;;;;;;;;;;5030954;28;20104;-67
2021/11/17 11:19:49;;;;;;;56.25;24.77;;;;;;;;;;5029073;28;20342;-67
2021/11/17 11:22:15;;;;;;;45.05;22.60;;;;;;;;;;5028340;28;20492;-67
2021/11/17 11:24:43;;;;;;;50.80;22.55;;;;;;;;;;5030096;28;20378;-68
2021/11/17 11:27:32;;;;;;;53.78;25.50;;;;;;;;;;5030609;28;20033;-67
2021/11/17 11:30:06;;;;;;;39.53;18.73;;;;;;;;;;5022100;28;20037;-68
2021/11/17 11:32:32;;;;;;;55.17;23.33;;;;;;;;;;5030088;28;20159;-67
2021/11/17 11:35:03;;;;;;;55.30;26.88;;;;;;;;;;5029814;28;20533;-66
2021/11/17 11:37:32;;;;;;;58.35;29.10;;;;;;;;;;5030342;28;20039;-67
2021/11/17 11:40:08;;;;;;;53.03;26.45;;;;;;;;;;5031696;28;20033;-67
2021/11/17 11:42:52;;;;;;;55.55;26.63;;;;;;;;;;5030453;28;20030;-67
2021/11/17 11:45:27;;;;;;;54.53;25.52;;;;;;;;;;5029411;28;20033;-68
2021/11/17 11:47:53;;;;;;;54.35;27.00;;;;;;;;;;5016894;28;20066;-68
2021/11/17 11:50:32;;;;;;;67.93;30.17;;;;;;;;;;5028033;28;20033;-68
2021/11/17 11:53:01;;;;;;;63.95;29.00;;;;;;;;;;5028057;28;20025;-69
2021/11/17 11:55:47;;;;;;;69.15;32.70;;;;;;;;;;5027296;28;20421;-69
2021/11/17 11:58:24;;;;;;;63.80;32.03;;;;;;;;;;5027724;28;20022;-68
2021/11/17 12:01:09;;;;;;;69.43;33.28;;;;;;;;;;5029225;28;20033;-69
2021/11/17 12:03:36;;;;;;;67.63;31.63;;;;;;;;;;5030112;28;20060;-70
2021/11/17 12:06:20;;;;;;;65.07;34.87;;;;;;;;;;5030136;28;20049;-65
2021/11/17 12:08:49;;;;;;;47.17;25.95;;;;;;;;;;5030213;28;20374;-69
2021/11/17 12:11:21;;;;;;;67.40;34.50;;;;;;;;;;5028932;28;20033;-67
2021/11/17 12:14:07;;;;;;;77.20;37.80;;;;;;;;;;5029190;28;20032;-66
2021/11/17 12:16:45;;;;;;;66.63;38.95;;;;;;;;;;5030364;28;20022;-69
2021/11/17 12:19:14;;;;;;;65.97;33.22;;;;;;;;;;5028535;28;20130;-69
2021/11/17 12:21:40;;;;;;;67.70;35.08;;;;;;;;;;5028128;28;20037;-68
2021/11/17 12:24:12;;;;;;;59.25;32.42;;;;;;;;;;5030268;28;20025;-69
2021/11/17 12:26:46;;;;;;;69.60;32.70;;;;;;;;;;5028378;28;20124;-67
2021/11/17 12:29:15;;;;;;;58.28;31.48;;;;;;;;;;5029225;28;20440;-69
2021/11/17 12:31:49;;;;;;;57.63;29.35;;;;;;;;;;5008385;28;20028;-69
2021/11/17 12:34:26;;;;;;;52.63;31.27;;;;;;;;;;5022479;28;20021;-68
2021/11/17 12:37:01;;;;;;;57.30;29.27;;;;;;;;;;5046453;22;20416;-68
2021/11/17 12:39:34;;;;;;;46.67;25.45;;;;;;;;;;5029322;28;20022;-69
2021/11/17 12:42:02;;;;;;;54.95;30.33;;;;;;;;;;5029878;28;20035;-70
2021/11/17 12:44:31;;;;;;;54.83;27.52;;;;;;;;;;5029786;28;20036;-70
2021/11/17 12:47:03;;;;;;;54.28;28.63;;;;;;;;;;5030643;28;20025;-69
2021/11/17 12:49:35;;;;;;;53.72;28.85;;;;;;;;;;5030944;28;20096;-69
2021/11/17 12:52:03;;;;;;;50.40;27.70;;;13.80;99.90;;;;;;5030873;28;20026;-69
2021/11/17 12:54:44;;;;;;;49.03;24.67;;;8.30;99.90;;;;;;5029166;28;20424;-69
2021/11/17 12:57:24;;;;;;;50.20;24.73;;;8.30;99.90;;;;;;5028431;28;20056;-69
2021/11/17 13:00:02;;;;;;;48.42;22.52;;;8.30;99.90;;;;;;5029422;28;20063;-69
2021/11/17 13:02:32;;;;;;;51.33;24.02;;;8.30;99.90;;;;;;5028399;28;20492;-69
2021/11/17 13:05:36;;;;;;;45.05;22.88;;;8.40;99.90;;;;;;5010725;28;20038;-69
2021/11/17 13:08:02;;;;;;;43.60;22.85;;;8.30;99.90;;;;;;5012292;28;20075;-68
2021/11/17 13:10:47;;;;;;;41.42;21.45;;;8.30;99.90;;;;;;5030430;28;20026;-68
2021/11/17 13:13:13;;;;;;;41.40;20.88;;;8.30;99.90;;;;;;5029288;28;20112;-68
2021/11/17 13:15:42;;;;;;;45.75;22.45;;;8.30;99.90;;;;;;5021845;28;20561;-68
2021/11/17 13:18:23;;;;;;;40.53;20.30;;;8.40;99.90;;;;;;5014706;28;20018;-69
2021/11/17 13:20:50;;;;;;;41.45;20.02;;;8.30;99.90;;;;;;5029166;28;20033;-68
2021/11/17 13:23:16;;;;;;;41.95;19.40;;;;;;;;;;5028275;28;20037;-67
2021/11/17 13:25:48;;;;;;;42.65;21.42;;;;;;;;;;5029101;28;20033;-68
2021/11/17 13:28:33;;;;;;;44.95;21.88;;;;;;;;;;5029759;28;20052;-68
2021/11/17 13:31:19;;;;;;;38.45;21.02;;;;;;;;;;5028412;28;20033;-66
2021/11/17 13:33:53;;;;;;;45.38;21.23;;;;;;;;;;5028453;28;20028;-68
2021/11/17 13:36:33;;;;;;;37.58;19.50;;;;;;;;;;5028338;28;20555;-67
2021/11/17 13:38:59;;;;;;;40.40;19.38;;;;;;;;;;5030699;28;20059;-66
2021/11/17 13:41:26;;;;;;;37.90;19.08;;;;;;;;;;5030967;28;20053;-65
2021/11/17 13:43:52;;;;;;;39.83;19.50;;;;;;;;;;5030527;28;20022;-69
2021/11/17 13:46:20;;;;;;;39.15;18.75;;;;;;;;;;5032223;28;20029;-69
2021/11/17 13:48:48;;;;;;;38.92;19.95;;;;;;;;;;5031055;28;20060;-67
2021/11/17 13:51:16;;;;;;;38.43;18.00;;;;;;;;;;5031008;28;20529;-68
2021/11/17 13:53:42;;;;;;;32.80;18.92;;;;;;;;;;5032162;28;20343;-69
2021/11/17 13:56:16;;;;;;;37.13;19.63;;;;;;;;;;5030842;28;20033;-67
2021/11/17 13:58:42;;;;;;;33.33;17.15;;;;;;;;;;5031463;28;20371;-67
2021/11/17 14:01:09;;;;;;;34.13;18.70;;;;;;;;;;5032511;28;20053;-68
2021/11/17 14:03:36;;;;;;;47.15;21.08;;;;;;;;;;5032285;28;20056;-67
2021/11/17 14:06:04;;;;;;;36.50;19.45;;;;;;;;;;4682406;28;10000237;-70
2021/11/17 14:08:32;;;;;;;39.58;22.52;;;;;;;;;;5028332;28;20041;-67
2021/11/17 14:10:58;;;;;;;34.95;17.58;;;;;;;;;;5027620;28;20037;-66
2021/11/17 14:13:24;;;;;;;39.42;19.17;;;;;;;;;;5027939;28;20017;-70
2021/11/17 14:15:51;;;;;;;36.90;17.33;;;;;;;;;;5027932;28;20148;-70
2021/11/17 14:18:17;;;;;;;38.28;18.60;;;;;;;;;;5029313;28;20516;-69
2021/11/17 14:20:45;;;;;;;43.28;21.08;;;;;;;;;;5028652;28;20048;-68
2021/11/17 14:23:11;;;;;;;42.15;20.42;;;;;;;;;;5028298;28;20029;-69
2021/11/17 14:25:37;;;;;;;41.22;19.02;;;;;;;;;;5028837;28;20071;-69
2021/11/17 14:28:06;;;;;;;47.38;22.00;;;;;;;;;;5027675;28;20029;-69
2021/11/17 14:30:35;;;;;;;44.85;20.92;;;;;;;;;;5028054;28;20057;-68
2021/11/17 14:33:02;;;;;;;47.17;20.15;;;;;;;;;;5029522;28;20028;-68
2021/11/17 14:35:28;;;;;;;42.58;21.35;;;;;;;;;;5028993;28;20041;-68
2021/11/17 14:37:55;;;;;;;45.60;21.10;;;;;;;;;;5027124;28;20120;-66
2021/11/17 14:40:22;;;;;;;44.53;23.70;;;;;;;;;;5029597;28;20025;-69
2021/11/17 14:42:48;;;;;;;44.90;21.98;;;;;;;;;;5031345;28;20017;-69
2021/11/17 14:45:16;;;;;;;46.90;24.13;;;;;;;;;;5032158;28;20021;-70
2021/11/17 14:47:43;;;;;;;46.28;21.60;;;;;;;;;;5031608;28;20077;-67
2021/11/17 14:50:09;;;;;;;48.75;21.75;;;;;;;;;;5032026;28;20120;-70
2021/11/17 14:52:37;;;;;;;43.10;23.35;;;;;;;;;;5031134;28;20396;-70
2021/11/17 14:55:03;;;;;;;49.30;22.38;;;;;;;;;;5030771;28;20101;-70
2021/11/17 14:57:30;;;;;;;51.60;22.13;;;;;;;;;;5030817;28;20045;-70
2021/11/17 14:59:57;;;;;;;45.42;19.77;;;;;;;;;;5030794;28;20400;-68
2021/11/17 15:02:26;;;;;;;51.75;23.05;;;;;;;;;;5031659;28;20034;-66
2021/11/17 15:04:52;;;;;;;47.13;21.15;;;;;;;;;;5031667;28;20026;-68
2021/11/17 15:07:18;;;;;;;51.25;21.30;;;;;;;;;;5030103;28;20072;-71
2021/11/17 15:09:44;;;;;;;52.97;25.63;;;;;;;;;;5030681;28;20048;-69
2021/11/17 15:12:16;;;;;;;49.28;20.58;;;;;;;;;;5031548;28;20129;-68
2021/11/17 15:14:42;;;;;;;53.05;22.85;;;;;;;;;;5031774;28;20071;-68
2021/11/17 15:17:08;;;;;;;52.90;22.00;;;;;;;;;;5030650;28;20017;-68
2021/11/17 15:19:34;;;;;;;50.92;24.92;;;;;;;;;;5030440;28;20121;-67
2021/11/17 15:22:00;;;;;;;53.40;22.25;;;;;;;;;;5032099;28;20025;-68
2021/11/17 15:24:27;;;;;;;60.90;23.63;;;;;;;;;;5030387;28;20033;-67
2021/11/17 15:27:02;;;;;;;47.25;22.00;;;;;;;;;;5031913;28;20073;-68
2021/11/17 15:29:28;;;;;;;55.17;22.00;;;;;;;;;;5034444;28;20400;-67
2021/11/17 15:31:54;;;;;;;48.88;22.33;;;;;;;;;;5033647;28;20167;-67
2021/11/17 15:34:20;;;;;;;51.45;22.98;;;;;;;;;;5035208;28;20037;-68
2021/11/17 15:36:46;;;;;;;49.20;22.10;;;;;;;;;;5033773;28;20393;-69
2021/11/17 15:39:12;;;;;;;56.15;26.17;;;;;;;;;;5033888;28;20033;-68
2021/11/17 15:41:40;;;;;;;53.25;22.80;;;;;;;;;;5034739;28;20539;-68
2021/11/17 15:44:06;;;;;;;55.30;23.10;;;;;;;;;;5035152;28;20040;-68
2021/11/17 15:46:32;;;;;;;61.03;24.33;;;;;;;;;;4684851;28;9999930;-68
2021/11/17 15:48:58;;;;;;;55.75;24.27;;;;;;;;;;5031806;28;20157;-68
2021/11/17 15:51:31;;;;;;;60.95;27.05;;;;;;;;;;5030116;28;20030;-66
2021/11/17 15:53:57;;;;;;;55.42;25.02;;;;;;;;;;5030168;28;20017;-68
2021/11/17 15:56:25;;;;;;;49.45;22.80;;;;;;;;;;5031516;28;20402;-67
2021/11/17 15:58:51;;;;;;;54.33;23.88;;;;;;;;;;5031772;28;20037;-66
2021/11/17 16:01:20;;;;;;;55.53;23.35;;;;;;;;;;5030562;28;20068;-68
2021/11/17 16:03:47;;;;;;;68.50;26.20;;;;;;;;;;5031603;28;20033;-68
2021/11/17 16:06:13;;;;;;;53.45;24.20;;;;;;;;;;5029956;28;20049;-66
2021/11/17 16:08:39;;;;;;;56.38;24.10;;;;;;;;;;5029616;28;20679;-67
2021/11/17 16:11:06;;;;;;;56.92;24.17;;;;;;;;;;5030623;28;20037;-69
2021/11/17 16:13:33;;;;;;;58.75;24.45;;;;;;;;;;5030281;28;20453;-68
2021/11/17 16:15:59;;;;;;;55.38;25.60;;;;;;;;;;5031117;28;20029;-66
2021/11/17 16:18:25;;;;;;;58.05;24.10;;;;;;;;;;5030058;28;20025;-68
2021/11/17 16:20:55;;;;;;;64.03;25.73;;;;;;;;;;5031679;28;20037;-69
2021/11/17 16:25:53;;;;;;;58.55;25.50;;;;;;;;;;5033620;28;20026;-68
2021/11/17 16:28:22;;;;;;;58.08;24.38;;;;;;;;;;5031853;28;20025;-68
2021/11/17 16:30:48;;;;;;;68.82;25.48;;;;;;;;;;5029519;28;20032;-66
2021/11/17 16:33:16;;;;;;;60.90;27.45;;;;;;;;;;5031785;28;20029;-67
2021/11/17 16:35:42;;;;;;;64.97;26.73;;;;;;;;;;5032086;28;20028;-65
2021/11/17 16:38:09;;;;;;;84.03;32.78;;;;;;;;;;4684384;28;9999669;-66
2021/11/17 16:40:36;;;;;;;70.55;28.60;;;;;;;;;;5030679;28;20495;-68
2021/11/17 16:43:04;;;;;;;64.65;26.23;;;;;;;;;;5031089;28;20067;-66
2021/11/17 16:45:30;;;;;;;68.80;24.98;;;;;;;;;;5031087;28;20026;-66
2021/11/17 16:47:56;;;;;;;64.15;25.92;;;;;;;;;;5029539;28;20081;-67
2021/11/17 16:50:23;;;;;;;65.72;28.83;;;;;;;;;;5028745;28;20116;-66
2021/11/17 16:52:50;;;;;;;73.45;28.00;;;;;;;;;;5029187;28;20539;-70
2021/11/17 16:55:20;;;;;;;71.32;28.45;;;;;;;;;;5029227;28;20060;-68
2021/11/17 16:57:48;;;;;;;70.55;28.25;;;;;;;;;;5032225;28;20029;-66
2021/11/17 17:00:17;;;;;;;66.10;26.48;;;;;;;;;;5030688;28;20128;-70
2021/11/17 17:02:43;;;;;;;69.32;29.40;;;;;;;;;;5028004;28;20029;-67
2021/11/17 17:05:09;;;;;;;68.45;27.98;;;;;;;;;;5031371;28;20037;-67